Cloncurry, Australia
Current Conditions -  °F | °C
As of 1:00 PM on Friday 28 Nov 2014 (Local Time) from YBMA Reporting Station
Scattered Clouds Scattered Clouds  
Wind Chill: 36°   Ceiling: Unl
Heat Index: 36°   Visibility: 6mi
Dew Point: 15°   Wind: 6mph
Humidity: 28%   Direction: 100°E
Pressure: 29.8"   Gusts: NA
Location:  20.7°S, 140.51°E
Report Text: YBMA 280300Z AUTO 10005KT 9999 // SCT074 SCT100 36/15 Q1009
Loading
Personal Weather Stations






























Interactive Weather Map New forecast layout! Learn more

10-Day Weather Forecast

Advertisements
Track Severe Weather on mobile